sensor_id;sensor_type;location;lat;lon;timestamp;pressure;altitude;pressure_sealevel;temperature;humidity
73952;BME280;62304;47.662;18.324;2023-01-10T00:01:09;99092.38;;;6.21;100.00
73952;BME280;62304;47.662;18.324;2023-01-10T00:04:13;99099.47;;;6.22;100.00
73952;BME280;62304;47.662;18.324;2023-01-10T00:07:15;99097.84;;;6.17;100.00
73952;BME280;62304;47.662;18.324;2023-01-10T00:10:18;99101.78;;;6.16;99.86
73952;BME280;62304;47.662;18.324;2023-01-10T00:13:21;99112.78;;;6.16;99.64
73952;BME280;62304;47.662;18.324;2023-01-10T00:16:27;99109.16;;;6.12;99.50
73952;BME280;62304;47.662;18.324;2023-01-10T00:19:30;99111.09;;;6.08;99.53
73952;BME280;62304;47.662;18.324;2023-01-10T00:22:33;99103.97;;;6.07;99.23
73952;BME280;62304;47.662;18.324;2023-01-10T00:25:36;99112.62;;;6.06;99.32
73952;BME280;62304;47.662;18.324;2023-01-10T00:28:39;99118.91;;;6.06;99.20
73952;BME280;62304;47.662;18.324;2023-01-10T00:31:43;99125.09;;;6.00;99.22
73952;BME280;62304;47.662;18.324;2023-01-10T00:34:46;99120.44;;;6.04;99.20
73952;BME280;62304;47.662;18.324;2023-01-10T00:37:48;99113.78;;;6.05;99.02
73952;BME280;62304;47.662;18.324;2023-01-10T00:40:53;99111.69;;;5.95;99.04
73952;BME280;62304;47.662;18.324;2023-01-10T00:43:56;99112.91;;;5.97;98.95
73952;BME280;62304;47.662;18.324;2023-01-10T00:46:59;99122.28;;;5.96;98.82
73952;BME280;62304;47.662;18.324;2023-01-10T00:50:03;99111.22;;;5.93;98.76
73952;BME280;62304;47.662;18.324;2023-01-10T00:53:10;99108.31;;;5.82;98.63
73952;BME280;62304;47.662;18.324;2023-01-10T00:56:13;99114.50;;;5.79;98.85
73952;BME280;62304;47.662;18.324;2023-01-10T00:59:16;99109.31;;;5.74;98.65
73952;BME280;62304;47.662;18.324;2023-01-10T01:02:19;99122.06;;;5.82;98.61
73952;BME280;62304;47.662;18.324;2023-01-10T01:05:22;99125.00;;;5.70;98.57
73952;BME280;62304;47.662;18.324;2023-01-10T01:08:24;99116.34;;;5.72;98.39
73952;BME280;62304;47.662;18.324;2023-01-10T01:11:27;99123.87;;;5.75;98.40
73952;BME280;62304;47.662;18.324;2023-01-10T01:14:30;99132.84;;;5.72;98.19
73952;BME280;62304;47.662;18.324;2023-01-10T01:17:33;99133.50;;;5.84;97.95
73952;BME280;62304;47.662;18.324;2023-01-10T01:20:38;99128.28;;;5.79;97.91
73952;BME280;62304;47.662;18.324;2023-01-10T01:23:41;99134.53;;;5.76;97.93
73952;BME280;62304;47.662;18.324;2023-01-10T01:26:44;99135.09;;;5.85;97.58
73952;BME280;62304;47.662;18.324;2023-01-10T01:29:47;99126.22;;;5.73;97.60
73952;BME280;62304;47.662;18.324;2023-01-10T01:32:50;99124.37;;;5.80;97.51
73952;BME280;62304;47.662;18.324;2023-01-10T01:35:53;99122.72;;;5.76;97.49
73952;BME280;62304;47.662;18.324;2023-01-10T01:38:56;99119.19;;;5.75;97.51
73952;BME280;62304;47.662;18.324;2023-01-10T01:41:59;99118.69;;;5.70;97.65
73952;BME280;62304;47.662;18.324;2023-01-10T01:48:16;99114.50;;;5.79;97.55
73952;BME280;62304;47.662;18.324;2023-01-10T01:51:23;99106.22;;;5.76;97.82
73952;BME280;62304;47.662;18.324;2023-01-10T01:54:29;99118.16;;;5.83;97.72
73952;BME280;62304;47.662;18.324;2023-01-10T01:57:34;99109.50;;;5.81;97.81
73952;BME280;62304;47.662;18.324;2023-01-10T02:00:37;99123.87;;;5.75;97.67
73952;BME280;62304;47.662;18.324;2023-01-10T02:03:42;99115.78;;;5.82;97.55
73952;BME280;62304;47.662;18.324;2023-01-10T02:06:50;99115.69;;;5.78;97.48
73952;BME280;62304;47.662;18.324;2023-01-10T02:09:58;99119.31;;;5.82;97.33
73952;BME280;62304;47.662;18.324;2023-01-10T02:13:06;99116.75;;;5.70;97.36
73952;BME280;62304;47.662;18.324;2023-01-10T02:16:09;99130.59;;;5.77;97.39
73952;BME280;62304;47.662;18.324;2023-01-10T02:33:36;99133.09;;;5.63;97.86
73952;BME280;62304;47.662;18.324;2023-01-10T02:43:19;99149.06;;;5.54;97.94
73952;BME280;62304;47.662;18.324;2023-01-10T02:46:27;99151.38;;;5.52;98.11
73952;BME280;62304;47.662;18.324;2023-01-10T02:49:43;99156.09;;;5.52;98.16
73952;BME280;62304;47.662;18.324;2023-01-10T02:52:47;99150.66;;;5.55;98.01
73952;BME280;62304;47.662;18.324;2023-01-10T02:56:03;99155.75;;;5.53;98.10
73952;BME280;62304;47.662;18.324;2023-01-10T02:59:54;99158.41;;;5.50;97.97
73952;BME280;62304;47.662;18.324;2023-01-10T03:03:24;99169.69;;;5.45;98.04
73952;BME280;62304;47.662;18.324;2023-01-10T03:06:56;99182.97;;;5.39;97.96
73952;BME280;62304;47.662;18.324;2023-01-10T03:10:15;99189.03;;;5.29;97.98
73952;BME280;62304;47.662;18.324;2023-01-10T03:13:33;99195.69;;;5.28;97.88
73952;BME280;62304;47.662;18.324;2023-01-10T03:16:40;99198.38;;;5.25;97.81
73952;BME280;62304;47.662;18.324;2023-01-10T03:19:49;99194.41;;;5.22;97.81
73952;BME280;62304;47.662;18.324;2023-01-10T03:22:54;99204.09;;;5.16;96.63
73952;BME280;62304;47.662;18.324;2023-01-10T03:25:57;99198.16;;;5.14;97.26
73952;BME280;62304;47.662;18.324;2023-01-10T03:29:05;99197.78;;;5.16;97.40
73952;BME280;62304;47.662;18.324;2023-01-10T03:32:10;99205.41;;;5.22;97.44
73952;BME280;62304;47.662;18.324;2023-01-10T03:35:18;99206.84;;;5.16;97.57
73952;BME280;62304;47.662;18.324;2023-01-10T03:42:34;99204.47;;;5.15;97.49
73952;BME280;62304;47.662;18.324;2023-01-10T03:45:39;99210.09;;;5.22;97.79
73952;BME280;62304;47.662;18.324;2023-01-10T03:48:45;99224.22;;;5.20;97.55
73952;BME280;62304;47.662;18.324;2023-01-10T03:51:50;99213.66;;;5.22;97.97
73952;BME280;62304;47.662;18.324;2023-01-10T03:54:54;99210.16;;;5.25;98.22
73952;BME280;62304;47.662;18.324;2023-01-10T03:57:58;99210.47;;;5.20;98.00
73952;BME280;62304;47.662;18.324;2023-01-10T04:01:01;99210.75;;;5.15;98.14
73952;BME280;62304;47.662;18.324;2023-01-10T04:04:04;99207.56;;;5.13;98.16
73952;BME280;62304;47.662;18.324;2023-01-10T04:07:07;99209.00;;;5.07;98.39
73952;BME280;62304;47.662;18.324;2023-01-10T04:10:10;99215.53;;;4.99;98.25
73952;BME280;62304;47.662;18.324;2023-01-10T04:13:13;99220.16;;;4.95;98.12
73952;BME280;62304;47.662;18.324;2023-01-10T04:16:16;99222.47;;;4.93;98.17
73952;BME280;62304;47.662;18.324;2023-01-10T04:19:19;99212.53;;;4.89;97.98
73952;BME280;62304;47.662;18.324;2023-01-10T04:22:22;99229.41;;;4.87;97.89
73952;BME280;62304;47.662;18.324;2023-01-10T04:25:24;99243.12;;;4.87;97.72
73952;BME280;62304;47.662;18.324;2023-01-10T04:28:28;99227.00;;;4.86;97.61
73952;BME280;62304;47.662;18.324;2023-01-10T04:31:31;99237.13;;;4.82;97.62
73952;BME280;62304;47.662;18.324;2023-01-10T04:34:34;99244.25;;;4.86;97.49
73952;BME280;62304;47.662;18.324;2023-01-10T04:37:37;99228.44;;;4.80;97.65
73952;BME280;62304;47.662;18.324;2023-01-10T04:40:40;99217.47;;;4.80;97.68
73952;BME280;62304;47.662;18.324;2023-01-10T04:43:43;99234.66;;;4.77;97.82
73952;BME280;62304;47.662;18.324;2023-01-10T04:46:46;99245.72;;;4.80;97.82
73952;BME280;62304;47.662;18.324;2023-01-10T04:49:49;99247.66;;;4.80;98.00
73952;BME280;62304;47.662;18.324;2023-01-10T04:52:52;99252.34;;;4.79;97.86
73952;BME280;62304;47.662;18.324;2023-01-10T04:56:01;99261.41;;;4.80;97.91
73952;BME280;62304;47.662;18.324;2023-01-10T04:59:04;99246.50;;;4.81;97.88
73952;BME280;62304;47.662;18.324;2023-01-10T05:02:08;99255.09;;;4.79;98.05
73952;BME280;62304;47.662;18.324;2023-01-10T05:05:12;99256.69;;;4.80;98.20
73952;BME280;62304;47.662;18.324;2023-01-10T05:08:15;99271.31;;;4.84;98.12
73952;BME280;62304;47.662;18.324;2023-01-10T05:11:18;99276.53;;;4.89;98.07
73952;BME280;62304;47.662;18.324;2023-01-10T05:14:21;99280.16;;;4.93;98.01
73952;BME280;62304;47.662;18.324;2023-01-10T05:17:24;99297.88;;;4.96;98.00
73952;BME280;62304;47.662;18.324;2023-01-10T05:20:27;99320.63;;;4.96;98.10
73952;BME280;62304;47.662;18.324;2023-01-10T05:23:31;99318.44;;;5.02;98.04
73952;BME280;62304;47.662;18.324;2023-01-10T05:26:34;99325.09;;;5.01;98.02
73952;BME280;62304;47.662;18.324;2023-01-10T05:29:37;99332.53;;;5.00;97.99
73952;BME280;62304;47.662;18.324;2023-01-10T05:32:40;99342.06;;;5.06;97.89
73952;BME280;62304;47.662;18.324;2023-01-10T05:35:43;99354.22;;;5.05;97.73
73952;BME280;62304;47.662;18.324;2023-01-10T05:38:46;99355.38;;;5.04;97.66
73952;BME280;62304;47.662;18.324;2023-01-10T05:41:49;99359.25;;;5.03;97.76
73952;BME280;62304;47.662;18.324;2023-01-10T05:44:53;99358.47;;;5.03;98.08
73952;BME280;62304;47.662;18.324;2023-01-10T05:47:56;99367.22;;;5.08;98.01
73952;BME280;62304;47.662;18.324;2023-01-10T05:50:59;99359.00;;;5.08;98.05
73952;BME280;62304;47.662;18.324;2023-01-10T05:54:02;99363.34;;;5.09;98.28
73952;BME280;62304;47.662;18.324;2023-01-10T05:57:05;99365.72;;;5.11;98.10
73952;BME280;62304;47.662;18.324;2023-01-10T06:00:09;99353.78;;;5.03;98.62
73952;BME280;62304;47.662;18.324;2023-01-10T06:03:12;99349.16;;;5.07;98.61
73952;BME280;62304;47.662;18.324;2023-01-10T06:06:15;99344.41;;;5.04;98.68
73952;BME280;62304;47.662;18.324;2023-01-10T06:09:18;99356.97;;;5.05;98.77
73952;BME280;62304;47.662;18.324;2023-01-10T06:12:21;99355.00;;;5.06;98.71
73952;BME280;62304;47.662;18.324;2023-01-10T06:15:23;99353.00;;;5.03;98.80
73952;BME280;62304;47.662;18.324;2023-01-10T06:18:27;99347.41;;;4.99;98.92
73952;BME280;62304;47.662;18.324;2023-01-10T06:21:30;99371.34;;;4.99;98.89
73952;BME280;62304;47.662;18.324;2023-01-10T06:24:33;99371.00;;;5.00;98.91
73952;BME280;62304;47.662;18.324;2023-01-10T06:27:40;99378.88;;;5.02;99.03
73952;BME280;62304;47.662;18.324;2023-01-10T06:30:44;99390.22;;;5.00;98.90
73952;BME280;62304;47.662;18.324;2023-01-10T06:33:49;99398.37;;;4.97;99.00
73952;BME280;62304;47.662;18.324;2023-01-10T06:36:52;99408.47;;;4.93;99.07
73952;BME280;62304;47.662;18.324;2023-01-10T06:39:55;99411.78;;;4.98;99.02
73952;BME280;62304;47.662;18.324;2023-01-10T06:42:58;99419.13;;;4.94;98.93
73952;BME280;62304;47.662;18.324;2023-01-10T06:46:01;99429.66;;;4.92;99.07
73952;BME280;62304;47.662;18.324;2023-01-10T06:49:04;99433.28;;;4.96;98.96
73952;BME280;62304;47.662;18.324;2023-01-10T06:52:07;99439.06;;;4.91;99.10
73952;BME280;62304;47.662;18.324;2023-01-10T06:55:10;99451.63;;;4.92;99.01
73952;BME280;62304;47.662;18.324;2023-01-10T06:58:13;99470.59;;;4.97;98.90
73952;BME280;62304;47.662;18.324;2023-01-10T07:01:20;99477.44;;;4.88;99.10
73952;BME280;62304;47.662;18.324;2023-01-10T07:04:23;99466.34;;;4.84;99.29
73952;BME280;62304;47.662;18.324;2023-01-10T07:07:28;99487.44;;;4.80;99.35
73952;BME280;62304;47.662;18.324;2023-01-10T07:10:31;99483.00;;;4.76;99.65
73952;BME280;62304;47.662;18.324;2023-01-10T07:13:34;99499.41;;;4.72;99.81
73952;BME280;62304;47.662;18.324;2023-01-10T07:16:37;99495.50;;;4.73;99.72
73952;BME280;62304;47.662;18.324;2023-01-10T07:19:41;99494.25;;;4.71;99.83
73952;BME280;62304;47.662;18.324;2023-01-10T07:22:43;99498.94;;;4.70;100.00
73952;BME280;62304;47.662;18.324;2023-01-10T07:25:54;99509.91;;;4.70;100.00
73952;BME280;62304;47.662;18.324;2023-01-10T07:28:57;99513.81;;;4.69;100.00
73952;BME280;62304;47.662;18.324;2023-01-10T07:32:00;99524.72;;;4.66;100.00
73952;BME280;62304;47.662;18.324;2023-01-10T07:35:03;99535.78;;;4.69;100.00
73952;BME280;62304;47.662;18.324;2023-01-10T07:38:06;99532.59;;;4.67;100.00
73952;BME280;62304;47.662;18.324;2023-01-10T07:41:10;99544.75;;;4.66;100.00
73952;BME280;62304;47.662;18.324;2023-01-10T07:44:13;99549.00;;;4.64;100.00
73952;BME280;62304;47.662;18.324;2023-01-10T07:47:16;99564.66;;;4.63;100.00
73952;BME280;62304;47.662;18.324;2023-01-10T07:50:21;99570.16;;;4.63;100.00
73952;BME280;62304;47.662;18.324;2023-01-10T07:53:25;99572.47;;;4.61;100.00
73952;BME280;62304;47.662;18.324;2023-01-10T07:56:29;99569.38;;;4.63;100.00
73952;BME280;62304;47.662;18.324;2023-01-10T07:59:32;99581.03;;;4.60;100.00
73952;BME280;62304;47.662;18.324;2023-01-10T08:02:35;99591.22;;;4.59;100.00
73952;BME280;62304;47.662;18.324;2023-01-10T08:05:38;99606.19;;;4.62;100.00
73952;BME280;62304;47.662;18.324;2023-01-10T08:08:41;99601.84;;;4.61;100.00
73952;BME280;62304;47.662;18.324;2023-01-10T08:11:44;99612.06;;;4.60;100.00
73952;BME280;62304;47.662;18.324;2023-01-10T08:14:47;99628.16;;;4.62;100.00
73952;BME280;62304;47.662;18.324;2023-01-10T08:17:50;99625.78;;;4.60;100.00
73952;BME280;62304;47.662;18.324;2023-01-10T08:20:53;99613.19;;;4.59;100.00
73952;BME280;62304;47.662;18.324;2023-01-10T08:23:56;99631.28;;;4.60;100.00
73952;BME280;62304;47.662;18.324;2023-01-10T08:27:00;99639.53;;;4.60;100.00
73952;BME280;62304;47.662;18.324;2023-01-10T08:30:04;99644.19;;;4.60;100.00
73952;BME280;62304;47.662;18.324;2023-01-10T08:33:08;99658.75;;;4.60;100.00
73952;BME280;62304;47.662;18.324;2023-01-10T08:36:17;99663.09;;;4.61;100.00
73952;BME280;62304;47.662;18.324;2023-01-10T08:39:20;99677.16;;;4.60;99.97
73952;BME280;62304;47.662;18.324;2023-01-10T08:42:24;99695.56;;;4.59;100.00
73952;BME280;62304;47.662;18.324;2023-01-10T08:45:27;99712.03;;;4.59;100.00
73952;BME280;62304;47.662;18.324;2023-01-10T08:48:30;99718.69;;;4.58;99.95
73952;BME280;62304;47.662;18.324;2023-01-10T08:51:33;99714.78;;;4.59;99.91
73952;BME280;62304;47.662;18.324;2023-01-10T08:54:36;99736.75;;;4.59;99.95
73952;BME280;62304;47.662;18.324;2023-01-10T08:57:39;99737.91;;;4.58;99.99
73952;BME280;62304;47.662;18.324;2023-01-10T09:00:42;99755.31;;;4.62;99.94
73952;BME280;62304;47.662;18.324;2023-01-10T09:03:46;99760.78;;;4.62;99.89
73952;BME280;62304;47.662;18.324;2023-01-10T09:06:50;99766.28;;;4.62;99.99
73952;BME280;62304;47.662;18.324;2023-01-10T09:09:53;99772.22;;;4.64;99.83
73952;BME280;62304;47.662;18.324;2023-01-10T09:12:57;99774.28;;;4.67;99.78
73952;BME280;62304;47.662;18.324;2023-01-10T09:16:03;99775.44;;;4.66;99.76
73952;BME280;62304;47.662;18.324;2023-01-10T09:19:06;99777.03;;;4.67;99.69
73952;BME280;62304;47.662;18.324;2023-01-10T09:22:09;99782.97;;;4.69;99.72
73952;BME280;62304;47.662;18.324;2023-01-10T09:25:12;99788.94;;;4.71;99.55
73952;BME280;62304;47.662;18.324;2023-01-10T09:28:16;99787.78;;;4.72;99.63
73952;BME280;62304;47.662;18.324;2023-01-10T09:31:19;99802.31;;;4.73;99.49
73952;BME280;62304;47.662;18.324;2023-01-10T09:34:22;99802.69;;;4.71;99.53
73952;BME280;62304;47.662;18.324;2023-01-10T09:37:26;99811.37;;;4.73;99.51
73952;BME280;62304;47.662;18.324;2023-01-10T09:54:03;99842.16;;;4.79;98.92
73952;BME280;62304;47.662;18.324;2023-01-10T09:57:18;99830.03;;;4.80;98.94
73952;BME280;62304;47.662;18.324;2023-01-10T10:00:26;99840.66;;;4.81;98.84
73952;BME280;62304;47.662;18.324;2023-01-10T10:06:49;99841.13;;;4.83;98.70
73952;BME280;62304;47.662;18.324;2023-01-10T10:09:53;99846.28;;;4.85;98.58
73952;BME280;62304;47.662;18.324;2023-01-10T10:16:36;99850.75;;;4.89;98.54
73952;BME280;62304;47.662;18.324;2023-01-10T10:20:09;99862.88;;;4.88;98.59
73952;BME280;62304;47.662;18.324;2023-01-10T10:23:39;99863.66;;;4.89;98.75
73952;BME280;62304;47.662;18.324;2023-01-10T10:26:58;99847.06;;;4.85;98.84
73952;BME280;62304;47.662;18.324;2023-01-10T10:30:23;99868.38;;;4.88;99.03
73952;BME280;62304;47.662;18.324;2023-01-10T10:33:48;99869.97;;;4.89;99.22
73952;BME280;62304;47.662;18.324;2023-01-10T10:37:00;99876.28;;;4.90;99.32
73952;BME280;62304;47.662;18.324;2023-01-10T10:43:30;99875.25;;;4.94;99.51
73952;BME280;62304;47.662;18.324;2023-01-10T10:46:34;99893.00;;;4.97;99.60
73952;BME280;62304;47.662;18.324;2023-01-10T10:49:42;99889.91;;;4.98;99.51
73952;BME280;62304;47.662;18.324;2023-01-10T10:52:46;99888.75;;;4.99;99.53
73952;BME280;62304;47.662;18.324;2023-01-10T10:55:50;99893.22;;;5.04;99.67
73952;BME280;62304;47.662;18.324;2023-01-10T10:58:57;99883.03;;;5.04;99.68
73952;BME280;62304;47.662;18.324;2023-01-10T11:02:01;99896.06;;;5.07;99.68
73952;BME280;62304;47.662;18.324;2023-01-10T11:05:07;99895.37;;;5.10;99.51
73952;BME280;62304;47.662;18.324;2023-01-10T11:08:18;99902.94;;;5.13;99.63
73952;BME280;62304;47.662;18.324;2023-01-10T11:11:36;99888.75;;;5.11;99.63
73952;BME280;62304;47.662;18.324;2023-01-10T11:14:45;99912.44;;;5.16;99.84
73952;BME280;62304;47.662;18.324;2023-01-10T11:18:03;99914.84;;;5.17;99.81
73952;BME280;62304;47.662;18.324;2023-01-10T11:21:14;99907.41;;;5.18;99.91
73952;BME280;62304;47.662;18.324;2023-01-10T11:24:40;99920.34;;;5.17;99.93
73952;BME280;62304;47.662;18.324;2023-01-10T11:27:53;99917.25;;;5.19;99.92
73952;BME280;62304;47.662;18.324;2023-01-10T11:30:58;99924.34;;;5.20;99.87
73952;BME280;62304;47.662;18.324;2023-01-10T11:34:15;99933.03;;;5.22;99.91
73952;BME280;62304;47.662;18.324;2023-01-10T11:37:29;99937.75;;;5.21;99.82
73952;BME280;62304;47.662;18.324;2023-01-10T11:40:35;99946.44;;;5.23;99.82
73952;BME280;62304;47.662;18.324;2023-01-10T11:43:40;99952.75;;;5.24;99.79
73952;BME280;62304;47.662;18.324;2023-01-10T11:46:45;99956.28;;;5.24;99.65
73952;BME280;62304;47.662;18.324;2023-01-10T11:49:48;99962.28;;;5.26;99.62
73952;BME280;62304;47.662;18.324;2023-01-10T11:52:53;99974.75;;;5.24;99.57
73952;BME280;62304;47.662;18.324;2023-01-10T11:55:57;99972.56;;;5.29;99.57
73952;BME280;62304;47.662;18.324;2023-01-10T11:59:16;99977.28;;;5.29;99.47
73952;BME280;62304;47.662;18.324;2023-01-10T12:02:25;99981.16;;;5.28;99.55
73952;BME280;62304;47.662;18.324;2023-01-10T12:05:30;99978.53;;;5.31;99.50
73952;BME280;62304;47.662;18.324;2023-01-10T12:08:37;99990.00;;;5.33;99.44
73952;BME280;62304;47.662;18.324;2023-01-10T12:11:41;99989.28;;;5.36;99.31
73952;BME280;62304;47.662;18.324;2023-01-10T12:14:44;99991.69;;;5.38;99.19
73952;BME280;62304;47.662;18.324;2023-01-10T12:17:48;99994.91;;;5.40;99.09
73952;BME280;62304;47.662;18.324;2023-01-10T12:20:51;99997.78;;;5.43;98.94
73952;BME280;62304;47.662;18.324;2023-01-10T12:23:59;100001.41;;;5.47;98.86
73952;BME280;62304;47.662;18.324;2023-01-10T12:27:04;100002.25;;;5.48;98.74
73952;BME280;62304;47.662;18.324;2023-01-10T12:33:50;99994.69;;;5.57;98.53
73952;BME280;62304;47.662;18.324;2023-01-10T12:40:15;100023.06;;;5.61;98.19
73952;BME280;62304;47.662;18.324;2023-01-10T12:43:29;100027.78;;;5.60;98.13
73952;BME280;62304;47.662;18.324;2023-01-10T12:50:20;100040.84;;;5.63;97.97
73952;BME280;62304;47.662;18.324;2023-01-10T12:56:31;100043.72;;;5.67;97.67
73952;BME280;62304;47.662;18.324;2023-01-10T12:59:39;100034.44;;;5.71;97.30
73952;BME280;62304;47.662;18.324;2023-01-10T13:02:45;100041.97;;;5.74;97.14
73952;BME280;62304;47.662;18.324;2023-01-10T13:05:49;100039.72;;;5.76;96.94
73952;BME280;62304;47.662;18.324;2023-01-10T13:08:55;100038.56;;;5.77;96.59
73952;BME280;62304;47.662;18.324;2023-01-10T13:12:07;100038.22;;;5.79;96.27
73952;BME280;62304;47.662;18.324;2023-01-10T13:15:22;100045.66;;;5.78;95.62
73952;BME280;62304;47.662;18.324;2023-01-10T13:18:28;100041.75;;;5.79;95.44
73952;BME280;62304;47.662;18.324;2023-01-10T13:21:32;100052.91;;;5.83;95.46
73952;BME280;62304;47.662;18.324;2023-01-10T13:24:36;100057.28;;;5.84;95.21
73952;BME280;62304;47.662;18.324;2023-01-10T13:27:39;100061.97;;;5.83;95.22
73952;BME280;62304;47.662;18.324;2023-01-10T13:30:42;100058.41;;;5.83;94.98
73952;BME280;62304;47.662;18.324;2023-01-10T13:37:09;100063.56;;;5.84;94.16
73952;BME280;62304;47.662;18.324;2023-01-10T13:40:20;100068.41;;;5.87;94.21
73952;BME280;62304;47.662;18.324;2023-01-10T13:43:36;100082.59;;;5.89;94.10
73952;BME280;62304;47.662;18.324;2023-01-10T13:46:45;100089.69;;;5.90;93.95
73952;BME280;62304;47.662;18.324;2023-01-10T13:49:48;100099.94;;;5.90;93.75
73952;BME280;62304;47.662;18.324;2023-01-10T13:56:03;100115.06;;;5.96;92.87
73952;BME280;62304;47.662;18.324;2023-01-10T14:02:44;100132.13;;;6.01;92.73
73952;BME280;62304;47.662;18.324;2023-01-10T14:05:48;100136.97;;;6.04;92.48
73952;BME280;62304;47.662;18.324;2023-01-10T14:08:55;100150.50;;;6.09;92.46
73952;BME280;62304;47.662;18.324;2023-01-10T14:12:14;100145.00;;;6.09;92.34
73952;BME280;62304;47.662;18.324;2023-01-10T14:15:20;100135.56;;;6.10;92.22
73952;BME280;62304;47.662;18.324;2023-01-10T14:18:33;100149.69;;;6.09;92.36
73952;BME280;62304;47.662;18.324;2023-01-10T14:21:41;100162.28;;;6.10;92.14
73952;BME280;62304;47.662;18.324;2023-01-10T14:24:50;100147.25;;;6.07;91.85
73952;BME280;62304;47.662;18.324;2023-01-10T14:27:55;100159.91;;;6.08;92.08
73952;BME280;62304;47.662;18.324;2023-01-10T14:31:20;100161.03;;;6.07;92.22
73952;BME280;62304;47.662;18.324;2023-01-10T14:34:33;100155.63;;;6.11;92.10
73952;BME280;62304;47.662;18.324;2023-01-10T14:37:41;100162.66;;;6.08;91.99
73952;BME280;62304;47.662;18.324;2023-01-10T14:40:47;100154.41;;;6.08;91.95
73952;BME280;62304;47.662;18.324;2023-01-10T14:44:07;100152.78;;;6.07;91.98
73952;BME280;62304;47.662;18.324;2023-01-10T14:47:31;100165.66;;;6.03;92.00
73952;BME280;62304;47.662;18.324;2023-01-10T14:50:35;100186.97;;;6.06;92.00
73952;BME280;62304;47.662;18.324;2023-01-10T14:53:38;100206.94;;;6.03;92.09
73952;BME280;62304;47.662;18.324;2023-01-10T14:56:43;100212.44;;;6.03;91.78
73952;BME280;62304;47.662;18.324;2023-01-10T14:59:48;100202.09;;;6.00;91.33
73952;BME280;62304;47.662;18.324;2023-01-10T15:02:53;100208.44;;;6.01;91.55
73952;BME280;62304;47.662;18.324;2023-01-10T15:05:56;100208.31;;;5.97;91.56
73952;BME280;62304;47.662;18.324;2023-01-10T15:08:59;100219.78;;;5.99;91.65
73952;BME280;62304;47.662;18.324;2023-01-10T15:12:08;100228.38;;;5.98;91.69
73952;BME280;62304;47.662;18.324;2023-01-10T15:15:16;100220.00;;;5.94;91.66
73952;BME280;62304;47.662;18.324;2023-01-10T15:21:31;100231.66;;;5.91;91.98
73952;BME280;62304;47.662;18.324;2023-01-10T15:24:36;100247.75;;;5.89;91.89
73952;BME280;62304;47.662;18.324;2023-01-10T15:27:44;100242.56;;;5.88;91.97
73952;BME280;62304;47.662;18.324;2023-01-10T15:30:47;100245.31;;;5.88;92.01
73952;BME280;62304;47.662;18.324;2023-01-10T15:33:50;100244.88;;;5.86;91.93
73952;BME280;62304;47.662;18.324;2023-01-10T15:37:00;100247.75;;;5.89;91.67
73952;BME280;62304;47.662;18.324;2023-01-10T15:40:06;100256.12;;;5.93;91.41
73952;BME280;62304;47.662;18.324;2023-01-10T15:46:23;100258.06;;;5.92;91.26
73952;BME280;62304;47.662;18.324;2023-01-10T15:49:29;100261.16;;;5.91;91.30
73952;BME280;62304;47.662;18.324;2023-01-10T15:52:33;100264.03;;;5.94;90.95
73952;BME280;62304;47.662;18.324;2023-01-10T15:55:46;100283.75;;;5.96;90.84
73952;BME280;62304;47.662;18.324;2023-01-10T15:58:51;100292.81;;;5.97;90.81
73952;BME280;62304;47.662;18.324;2023-01-10T16:05:18;100310.63;;;5.99;90.45
73952;BME280;62304;47.662;18.324;2023-01-10T16:08:34;100319.44;;;6.05;90.34
73952;BME280;62304;47.662;18.324;2023-01-10T16:11:48;100321.87;;;6.06;90.14
73952;BME280;62304;47.662;18.324;2023-01-10T16:15:16;100328.97;;;6.07;90.16
73952;BME280;62304;47.662;18.324;2023-01-10T16:18:21;100322.69;;;6.07;90.14
73952;BME280;62304;47.662;18.324;2023-01-10T16:21:29;100324.94;;;6.05;90.22
73952;BME280;62304;47.662;18.324;2023-01-10T16:24:43;100323.94;;;6.09;90.09
73952;BME280;62304;47.662;18.324;2023-01-10T16:27:46;100322.34;;;6.08;89.95
73952;BME280;62304;47.662;18.324;2023-01-10T16:30:50;100321.75;;;6.03;89.93
73952;BME280;62304;47.662;18.324;2023-01-10T16:33:52;100334.47;;;6.07;89.87
73952;BME280;62304;47.662;18.324;2023-01-10T16:36:56;100339.97;;;6.07;89.74
73952;BME280;62304;47.662;18.324;2023-01-10T16:39:58;100340.91;;;6.11;89.53
73952;BME280;62304;47.662;18.324;2023-01-10T16:43:02;100349.06;;;6.08;89.60
73952;BME280;62304;47.662;18.324;2023-01-10T16:46:20;100354.12;;;6.06;89.23
73952;BME280;62304;47.662;18.324;2023-01-10T16:49:24;100363.97;;;6.07;89.46
73952;BME280;62304;47.662;18.324;2023-01-10T16:52:27;100357.31;;;6.08;89.30
73952;BME280;62304;47.662;18.324;2023-01-10T16:55:43;100372.13;;;6.03;89.41
73952;BME280;62304;47.662;18.324;2023-01-10T16:58:47;100372.91;;;6.04;89.39
73952;BME280;62304;47.662;18.324;2023-01-10T17:01:54;100387.50;;;6.04;89.48
73952;BME280;62304;47.662;18.324;2023-01-10T17:04:58;100385.41;;;6.01;89.53
73952;BME280;62304;47.662;18.324;2023-01-10T17:08:02;100392.66;;;6.06;89.47
73952;BME280;62304;47.662;18.324;2023-01-10T17:11:09;100405.47;;;6.02;89.43
73952;BME280;62304;47.662;18.324;2023-01-10T17:14:14;100413.06;;;6.05;89.31
73952;BME280;62304;47.662;18.324;2023-01-10T17:17:18;100417.78;;;6.04;89.24
73952;BME280;62304;47.662;18.324;2023-01-10T17:20:21;100413.06;;;6.05;89.28
73952;BME280;62304;47.662;18.324;2023-01-10T17:23:25;100424.44;;;6.03;89.16
73952;BME280;62304;47.662;18.324;2023-01-10T17:26:29;100418.22;;;6.06;89.18
73952;BME280;62304;47.662;18.324;2023-01-10T17:29:31;100421.66;;;6.03;89.05
73952;BME280;62304;47.662;18.324;2023-01-10T17:32:36;100434.28;;;6.04;88.97
73952;BME280;62304;47.662;18.324;2023-01-10T17:35:40;100435.44;;;6.03;88.65
73952;BME280;62304;47.662;18.324;2023-01-10T17:38:44;100438.97;;;6.04;88.82
73952;BME280;62304;47.662;18.324;2023-01-10T17:41:47;100445.44;;;6.08;88.63
73952;BME280;62304;47.662;18.324;2023-01-10T17:44:50;100454.84;;;6.07;88.64